Kokomo — WDB6285 — position and weather

sailwx.info

Track history (hours):
 
Tides and Currents Weather Stations Pressure Air Temp Water Temp Dewpoint Dewpoint Depression Visibility Wind Speed Wind Dir Waves Ship Positions

Kokomo

Owner: benson mr, marvin l, del mar, CA. More information available from US FCC via Universal Licensing System.

Last reported at 2017-Dec-08 22:55 UTC. Time now 2017-Dec-11 19:10 UTC.
Position N 29°23' W 094°52'.

Length 28 m; draft 3.1 m.

Type: . MMSI: 366921420.

Date/timePositionNaut miles runAvg speedWind from/ knotsBaromVisibWave heightAir tempDewpointWater temp
2017-Dec-08 22:55N 29°23' W 094°52'7 1.5
2017-Dec-08 17:59N 29°30' W 094°52'4 8.5
2017-Dec-08 17:31N 29°33' W 094°55'4 8.1
2017-Dec-08 17:00N 29°37' W 094°57'4 8.3
2017-Dec-08 16:31N 29°41' W 094°59'4 8.0
2017-Dec-08 16:00N 29°44' W 095°02'4 0.2
2017-Dec-07 22:19N 29°46' W 095°05'2 6.0
2017-Dec-07 21:58N 29°44' W 095°04'2 1.0
2017-Dec-07 19:57N 29°44' W 095°01'3 5.4
2017-Dec-07 19:29N 29°45' W 095°04'2 0.3
2017-Dec-07 10:36N 29°47' W 095°05'1 0.1
2017-Dec-07 01:34N 29°47' W 095°05'1 5.5
2017-Dec-07 01:25N 29°46' W 095°05'2 5.3
2017-Dec-07 00:57N 29°44' W 095°03'0 0.2
2017-Dec-07 00:25N 29°44' W 095°03'0 0.0
2017-Dec-06 23:49N 29°44' W 095°03'0 0.0
2017-Dec-06 23:25N 29°44' W 095°03'0 0.0
2017-Dec-06 22:13N 29°44' W 095°03'1 4.7
2017-Dec-06 22:00N 29°45' W 095°04'  
2017-Dec-02 08:45N 29°46' W 095°05'1 0.3
2017-Dec-02 05:23N 29°47' W 095°05'0 0.0
2017-Dec-01 05:07N 29°47' W 095°05'1 0.2
2017-Nov-30 20:37N 29°46' W 095°05'1 5.7
2017-Nov-30 20:21N 29°45' W 095°04'3 6.0
2017-Nov-30 19:52N 29°43' W 095°01'2 6.3
2017-Nov-30 19:30N 29°41' W 094°59'3 6.8
2017-Nov-30 19:00N 29°38' W 094°58'3 6.6
2017-Nov-30 18:30N 29°35' W 094°56'4 7.0
2017-Nov-30 18:00N 29°32' W 094°54'  
Track history (hours):
 
Tides and Currents Weather Stations Pressure Air Temp Water Temp Dewpoint Dewpoint Depression Visibility Wind Speed Wind Dir Waves Ship Positions

Kokomo

Owner: benson mr, marvin l, del mar, CA. More information available from US FCC via Universal Licensing System.

Last reported at 2017-Dec-08 22:55 UTC. Time now 2017-Dec-11 19:10 UTC.
Position N 29°23' W 094°52'.

Length 28 m; draft 3.1 m.

Type: . MMSI: 366921420.

Date/timePositionNaut miles runAvg speedWind from/ knotsBaromVisibWave heightAir tempDewpointWater temp
2017-Dec-08 22:55N 29°23' W 094°52'7 1.5
2017-Dec-08 17:59N 29°30' W 094°52'4 8.5
2017-Dec-08 17:31N 29°33' W 094°55'4 8.1
2017-Dec-08 17:00N 29°37' W 094°57'4 8.3
2017-Dec-08 16:31N 29°41' W 094°59'4 8.0
2017-Dec-08 16:00N 29°44' W 095°02'4 0.2
2017-Dec-07 22:19N 29°46' W 095°05'2 6.0
2017-Dec-07 21:58N 29°44' W 095°04'2 1.0
2017-Dec-07 19:57N 29°44' W 095°01'3 5.4
2017-Dec-07 19:29N 29°45' W 095°04'2 0.3
2017-Dec-07 10:36N 29°47' W 095°05'1 0.1
2017-Dec-07 01:34N 29°47' W 095°05'1 5.5
2017-Dec-07 01:25N 29°46' W 095°05'2 5.3
2017-Dec-07 00:57N 29°44' W 095°03'0 0.2
2017-Dec-07 00:25N 29°44' W 095°03'0 0.0
2017-Dec-06 23:49N 29°44' W 095°03'0 0.0
2017-Dec-06 23:25N 29°44' W 095°03'0 0.0
2017-Dec-06 22:13N 29°44' W 095°03'1 4.7
2017-Dec-06 22:00N 29°45' W 095°04'  
2017-Dec-02 08:45N 29°46' W 095°05'1 0.3
2017-Dec-02 05:23N 29°47' W 095°05'0 0.0
2017-Dec-01 05:07N 29°47' W 095°05'1 0.2
2017-Nov-30 20:37N 29°46' W 095°05'1 5.7
2017-Nov-30 20:21N 29°45' W 095°04'3 6.0
2017-Nov-30 19:52N 29°43' W 095°01'2 6.3
2017-Nov-30 19:30N 29°41' W 094°59'3 6.8
2017-Nov-30 19:00N 29°38' W 094°58'3 6.6
2017-Nov-30 18:30N 29°35' W 094°56'4 7.0
2017-Nov-30 18:00N 29°32' W 094°54'  

Dump ship's entire track history